sensor_id;sensor_type;location;lat;lon;timestamp;P1;durP1;ratioP1;P2;durP2;ratioP2
42338;SDS011;27993;45.392;10.918;2022-12-29T00:01:21;12.65;;;6.37;;
42338;SDS011;27993;45.392;10.918;2022-12-29T00:03:51;10.13;;;6.30;;
42338;SDS011;27993;45.392;10.918;2022-12-29T00:06:22;10.47;;;6.30;;
42338;SDS011;27993;45.392;10.918;2022-12-29T00:08:53;16.30;;;6.70;;
42338;SDS011;27993;45.392;10.918;2022-12-29T00:11:24;11.90;;;6.07;;
42338;SDS011;27993;45.392;10.918;2022-12-29T00:13:56;12.70;;;6.68;;
42338;SDS011;27993;45.392;10.918;2022-12-29T00:16:45;11.65;;;7.28;;
42338;SDS011;27993;45.392;10.918;2022-12-29T00:19:16;14.33;;;6.80;;
42338;SDS011;27993;45.392;10.918;2022-12-29T00:22:05;10.95;;;6.75;;
42338;SDS011;27993;45.392;10.918;2022-12-29T00:24:55;11.30;;;7.12;;
42338;SDS011;27993;45.392;10.918;2022-12-29T00:27:31;12.43;;;6.75;;
42338;SDS011;27993;45.392;10.918;2022-12-29T00:30:21;15.32;;;7.00;;
42338;SDS011;27993;45.392;10.918;2022-12-29T00:33:12;15.13;;;7.35;;
42338;SDS011;27993;45.392;10.918;2022-12-29T00:36:07;14.80;;;8.13;;
42338;SDS011;27993;45.392;10.918;2022-12-29T00:38:45;10.75;;;6.37;;
42338;SDS011;27993;45.392;10.918;2022-12-29T00:41:38;14.90;;;7.55;;
42338;SDS011;27993;45.392;10.918;2022-12-29T00:44:27;13.15;;;7.35;;
42338;SDS011;27993;45.392;10.918;2022-12-29T00:46:58;14.50;;;8.33;;
42338;SDS011;27993;45.392;10.918;2022-12-29T00:49:33;12.48;;;7.72;;
42338;SDS011;27993;45.392;10.918;2022-12-29T00:52:05;24.17;;;8.07;;
42338;SDS011;27993;45.392;10.918;2022-12-29T00:54:42;14.23;;;8.38;;
42338;SDS011;27993;45.392;10.918;2022-12-29T00:57:14;12.37;;;6.30;;
42338;SDS011;27993;45.392;10.918;2022-12-29T00:59:45;13.53;;;6.10;;
42338;SDS011;27993;45.392;10.918;2022-12-29T01:02:16;11.47;;;6.47;;
42338;SDS011;27993;45.392;10.918;2022-12-29T01:04:46;14.53;;;7.43;;
42338;SDS011;27993;45.392;10.918;2022-12-29T01:10:44;14.98;;;7.75;;
42338;SDS011;27993;45.392;10.918;2022-12-29T01:13:15;17.20;;;9.00;;
42338;SDS011;27993;45.392;10.918;2022-12-29T01:15:49;14.10;;;7.57;;
42338;SDS011;27993;45.392;10.918;2022-12-29T01:18:21;14.63;;;7.80;;
42338;SDS011;27993;45.392;10.918;2022-12-29T01:21:05;14.23;;;8.75;;
42338;SDS011;27993;45.392;10.918;2022-12-29T01:23:36;16.50;;;8.40;;
42338;SDS011;27993;45.392;10.918;2022-12-29T01:26:13;18.77;;;8.50;;
42338;SDS011;27993;45.392;10.918;2022-12-29T01:28:46;15.55;;;7.93;;
42338;SDS011;27993;45.392;10.918;2022-12-29T01:31:16;22.23;;;9.43;;
42338;SDS011;27993;45.392;10.918;2022-12-29T01:33:47;16.03;;;9.13;;
42338;SDS011;27993;45.392;10.918;2022-12-29T01:36:18;14.03;;;8.93;;
42338;SDS011;27993;45.392;10.918;2022-12-29T01:38:49;17.87;;;10.88;;
42338;SDS011;27993;45.392;10.918;2022-12-29T01:41:20;17.35;;;9.98;;
42338;SDS011;27993;45.392;10.918;2022-12-29T01:43:52;22.35;;;10.77;;
42338;SDS011;27993;45.392;10.918;2022-12-29T01:49:11;25.23;;;11.50;;
42338;SDS011;27993;45.392;10.918;2022-12-29T01:51:55;17.90;;;10.90;;
42338;SDS011;27993;45.392;10.918;2022-12-29T01:54:40;20.52;;;10.48;;
42338;SDS011;27993;45.392;10.918;2022-12-29T01:57:20;25.08;;;10.38;;
42338;SDS011;27993;45.392;10.918;2022-12-29T02:00:02;18.10;;;11.10;;
42338;SDS011;27993;45.392;10.918;2022-12-29T02:02:59;18.37;;;10.45;;
42338;SDS011;27993;45.392;10.918;2022-12-29T02:05:34;18.10;;;11.15;;
42338;SDS011;27993;45.392;10.918;2022-12-29T02:08:29;22.27;;;11.05;;
42338;SDS011;27993;45.392;10.918;2022-12-29T02:11:01;20.65;;;10.02;;
42338;SDS011;27993;45.392;10.918;2022-12-29T02:13:33;18.62;;;9.43;;
42338;SDS011;27993;45.392;10.918;2022-12-29T02:19:00;21.05;;;10.55;;
42338;SDS011;27993;45.392;10.918;2022-12-29T02:25:06;14.43;;;9.15;;
42338;SDS011;27993;45.392;10.918;2022-12-29T02:30:48;15.88;;;8.90;;
42338;SDS011;27993;45.392;10.918;2022-12-29T02:44:12;16.73;;;8.63;;
42338;SDS011;27993;45.392;10.918;2022-12-29T02:46:57;16.00;;;7.80;;
42338;SDS011;27993;45.392;10.918;2022-12-29T02:49:56;11.60;;;7.90;;
42338;SDS011;27993;45.392;10.918;2022-12-29T02:52:34;18.45;;;8.15;;
42338;SDS011;27993;45.392;10.918;2022-12-29T02:55:10;13.68;;;7.90;;
42338;SDS011;27993;45.392;10.918;2022-12-29T02:57:41;10.48;;;7.35;;
42338;SDS011;27993;45.392;10.918;2022-12-29T03:00:13;14.17;;;8.40;;
42338;SDS011;27993;45.392;10.918;2022-12-29T03:03:07;13.85;;;7.45;;
42338;SDS011;27993;45.392;10.918;2022-12-29T03:09:21;19.00;;;8.05;;
42338;SDS011;27993;45.392;10.918;2022-12-29T03:12:00;14.20;;;8.57;;
42338;SDS011;27993;45.392;10.918;2022-12-29T03:15:02;12.23;;;8.07;;
42338;SDS011;27993;45.392;10.918;2022-12-29T03:18:01;18.87;;;8.30;;
42338;SDS011;27993;45.392;10.918;2022-12-29T03:20:45;14.98;;;7.78;;
42338;SDS011;27993;45.392;10.918;2022-12-29T03:23:23;22.17;;;7.72;;
42338;SDS011;27993;45.392;10.918;2022-12-29T03:28:29;10.20;;;6.90;;
42338;SDS011;27993;45.392;10.918;2022-12-29T03:31:06;13.48;;;7.18;;
42338;SDS011;27993;45.392;10.918;2022-12-29T03:33:39;11.18;;;7.50;;
42338;SDS011;27993;45.392;10.918;2022-12-29T03:36:17;11.77;;;7.68;;
42338;SDS011;27993;45.392;10.918;2022-12-29T03:39:06;15.38;;;7.95;;
42338;SDS011;27993;45.392;10.918;2022-12-29T03:41:42;13.32;;;7.75;;
42338;SDS011;27993;45.392;10.918;2022-12-29T03:44:14;18.98;;;8.82;;
42338;SDS011;27993;45.392;10.918;2022-12-29T03:46:45;11.77;;;6.63;;
42338;SDS011;27993;45.392;10.918;2022-12-29T03:49:15;12.03;;;7.53;;
42338;SDS011;27993;45.392;10.918;2022-12-29T03:51:46;13.63;;;8.03;;
42338;SDS011;27993;45.392;10.918;2022-12-29T03:54:17;11.77;;;8.27;;
42338;SDS011;27993;45.392;10.918;2022-12-29T03:56:47;19.20;;;8.17;;
42338;SDS011;27993;45.392;10.918;2022-12-29T03:59:18;19.20;;;8.77;;
42338;SDS011;27993;45.392;10.918;2022-12-29T04:01:48;15.97;;;8.13;;
42338;SDS011;27993;45.392;10.918;2022-12-29T04:04:19;12.23;;;7.77;;
42338;SDS011;27993;45.392;10.918;2022-12-29T04:06:50;16.07;;;7.77;;
42338;SDS011;27993;45.392;10.918;2022-12-29T04:09:20;12.43;;;8.33;;
42338;SDS011;27993;45.392;10.918;2022-12-29T04:11:51;13.67;;;8.13;;
42338;SDS011;27993;45.392;10.918;2022-12-29T04:14:21;14.53;;;7.93;;
42338;SDS011;27993;45.392;10.918;2022-12-29T04:16:52;12.27;;;6.83;;
42338;SDS011;27993;45.392;10.918;2022-12-29T04:19:23;15.15;;;7.32;;
42338;SDS011;27993;45.392;10.918;2022-12-29T04:21:53;11.90;;;7.23;;
42338;SDS011;27993;45.392;10.918;2022-12-29T04:24:24;14.17;;;8.43;;
42338;SDS011;27993;45.392;10.918;2022-12-29T04:26:55;14.27;;;7.63;;
42338;SDS011;27993;45.392;10.918;2022-12-29T04:29:25;11.57;;;7.30;;
42338;SDS011;27993;45.392;10.918;2022-12-29T04:31:56;10.23;;;7.25;;
42338;SDS011;27993;45.392;10.918;2022-12-29T04:34:27;16.75;;;7.68;;
42338;SDS011;27993;45.392;10.918;2022-12-29T04:36:57;10.00;;;6.97;;
42338;SDS011;27993;45.392;10.918;2022-12-29T04:39:28;10.60;;;7.22;;
42338;SDS011;27993;45.392;10.918;2022-12-29T04:41:58;14.80;;;7.87;;
42338;SDS011;27993;45.392;10.918;2022-12-29T04:44:29;15.43;;;7.73;;
42338;SDS011;27993;45.392;10.918;2022-12-29T04:47:00;16.08;;;8.18;;
42338;SDS011;27993;45.392;10.918;2022-12-29T04:49:30;16.63;;;8.70;;
42338;SDS011;27993;45.392;10.918;2022-12-29T04:52:01;11.00;;;7.65;;
42338;SDS011;27993;45.392;10.918;2022-12-29T04:54:32;12.90;;;7.95;;
42338;SDS011;27993;45.392;10.918;2022-12-29T04:57:03;17.13;;;7.67;;
42338;SDS011;27993;45.392;10.918;2022-12-29T04:59:33;18.27;;;9.27;;
42338;SDS011;27993;45.392;10.918;2022-12-29T05:02:04;13.43;;;7.47;;
42338;SDS011;27993;45.392;10.918;2022-12-29T05:04:34;14.30;;;8.25;;
42338;SDS011;27993;45.392;10.918;2022-12-29T05:07:05;17.37;;;7.93;;
42338;SDS011;27993;45.392;10.918;2022-12-29T05:09:36;15.68;;;8.30;;
42338;SDS011;27993;45.392;10.918;2022-12-29T05:12:06;13.18;;;7.70;;
42338;SDS011;27993;45.392;10.918;2022-12-29T05:14:37;10.93;;;7.83;;
42338;SDS011;27993;45.392;10.918;2022-12-29T05:17:08;9.97;;;7.20;;
42338;SDS011;27993;45.392;10.918;2022-12-29T05:19:39;15.30;;;9.18;;
42338;SDS011;27993;45.392;10.918;2022-12-29T05:22:09;20.23;;;8.73;;
42338;SDS011;27993;45.392;10.918;2022-12-29T05:24:40;15.80;;;7.23;;
42338;SDS011;27993;45.392;10.918;2022-12-29T05:27:11;12.67;;;7.70;;
42338;SDS011;27993;45.392;10.918;2022-12-29T05:29:41;16.50;;;9.20;;
42338;SDS011;27993;45.392;10.918;2022-12-29T05:32:12;16.03;;;8.80;;
42338;SDS011;27993;45.392;10.918;2022-12-29T05:34:42;19.73;;;8.50;;
42338;SDS011;27993;45.392;10.918;2022-12-29T05:37:13;12.30;;;7.50;;
42338;SDS011;27993;45.392;10.918;2022-12-29T05:39:44;18.37;;;9.07;;
42338;SDS011;27993;45.392;10.918;2022-12-29T05:42:14;13.90;;;7.87;;
42338;SDS011;27993;45.392;10.918;2022-12-29T05:44:45;16.67;;;9.43;;
42338;SDS011;27993;45.392;10.918;2022-12-29T05:47:16;12.68;;;8.30;;
42338;SDS011;27993;45.392;10.918;2022-12-29T05:49:46;13.43;;;8.13;;
42338;SDS011;27993;45.392;10.918;2022-12-29T05:52:17;12.57;;;7.50;;
42338;SDS011;27993;45.392;10.918;2022-12-29T05:54:48;17.47;;;8.07;;
42338;SDS011;27993;45.392;10.918;2022-12-29T05:57:18;13.10;;;7.90;;
42338;SDS011;27993;45.392;10.918;2022-12-29T05:59:49;10.77;;;7.13;;
42338;SDS011;27993;45.392;10.918;2022-12-29T06:02:19;12.80;;;7.60;;
42338;SDS011;27993;45.392;10.918;2022-12-29T06:04:50;19.50;;;7.80;;
42338;SDS011;27993;45.392;10.918;2022-12-29T06:07:21;15.77;;;8.13;;
42338;SDS011;27993;45.392;10.918;2022-12-29T06:09:51;12.13;;;7.60;;
42338;SDS011;27993;45.392;10.918;2022-12-29T06:12:22;12.13;;;7.63;;
42338;SDS011;27993;45.392;10.918;2022-12-29T06:14:53;13.30;;;7.10;;
42338;SDS011;27993;45.392;10.918;2022-12-29T06:17:23;17.12;;;7.65;;
42338;SDS011;27993;45.392;10.918;2022-12-29T06:19:54;11.82;;;7.60;;
42338;SDS011;27993;45.392;10.918;2022-12-29T06:22:25;13.88;;;7.62;;
42338;SDS011;27993;45.392;10.918;2022-12-29T06:24:55;11.00;;;6.87;;
42338;SDS011;27993;45.392;10.918;2022-12-29T06:27:26;12.20;;;6.53;;
42338;SDS011;27993;45.392;10.918;2022-12-29T06:29:57;10.17;;;6.30;;
42338;SDS011;27993;45.392;10.918;2022-12-29T06:32:27;10.30;;;6.47;;
42338;SDS011;27993;45.392;10.918;2022-12-29T06:34:58;13.30;;;7.12;;
42338;SDS011;27993;45.392;10.918;2022-12-29T06:37:29;15.03;;;8.00;;
42338;SDS011;27993;45.392;10.918;2022-12-29T06:40:00;11.60;;;7.70;;
42338;SDS011;27993;45.392;10.918;2022-12-29T06:42:30;11.17;;;6.90;;
42338;SDS011;27993;45.392;10.918;2022-12-29T06:45:01;11.93;;;7.43;;
42338;SDS011;27993;45.392;10.918;2022-12-29T06:47:32;17.20;;;6.73;;
42338;SDS011;27993;45.392;10.918;2022-12-29T06:50:04;16.52;;;8.82;;
42338;SDS011;27993;45.392;10.918;2022-12-29T06:52:35;15.05;;;8.40;;
42338;SDS011;27993;45.392;10.918;2022-12-29T06:55:06;15.32;;;9.10;;
42338;SDS011;27993;45.392;10.918;2022-12-29T06:57:37;19.63;;;9.20;;
42338;SDS011;27993;45.392;10.918;2022-12-29T07:00:07;16.37;;;9.60;;
42338;SDS011;27993;45.392;10.918;2022-12-29T07:02:39;22.87;;;11.12;;
42338;SDS011;27993;45.392;10.918;2022-12-29T07:05:09;16.67;;;8.63;;
42338;SDS011;27993;45.392;10.918;2022-12-29T07:07:40;19.27;;;10.40;;
42338;SDS011;27993;45.392;10.918;2022-12-29T07:10:11;22.50;;;8.93;;
42338;SDS011;27993;45.392;10.918;2022-12-29T07:12:42;19.07;;;8.80;;
42338;SDS011;27993;45.392;10.918;2022-12-29T07:15:12;19.93;;;8.67;;
42338;SDS011;27993;45.392;10.918;2022-12-29T07:17:43;17.37;;;8.97;;
42338;SDS011;27993;45.392;10.918;2022-12-29T07:20:13;17.57;;;10.20;;
42338;SDS011;27993;45.392;10.918;2022-12-29T07:22:44;19.07;;;11.70;;
42338;SDS011;27993;45.392;10.918;2022-12-29T07:25:15;23.50;;;10.47;;
42338;SDS011;27993;45.392;10.918;2022-12-29T07:27:45;20.23;;;10.57;;
42338;SDS011;27993;45.392;10.918;2022-12-29T07:30:16;21.77;;;8.97;;
42338;SDS011;27993;45.392;10.918;2022-12-29T07:32:47;20.27;;;10.77;;
42338;SDS011;27993;45.392;10.918;2022-12-29T07:35:17;17.03;;;10.57;;
42338;SDS011;27993;45.392;10.918;2022-12-29T07:37:48;18.20;;;11.27;;
42338;SDS011;27993;45.392;10.918;2022-12-29T07:40:19;27.83;;;10.33;;
42338;SDS011;27993;45.392;10.918;2022-12-29T07:42:50;17.10;;;9.07;;
42338;SDS011;27993;45.392;10.918;2022-12-29T07:45:20;18.40;;;10.27;;
42338;SDS011;27993;45.392;10.918;2022-12-29T07:47:51;18.93;;;9.60;;
42338;SDS011;27993;45.392;10.918;2022-12-29T07:50:22;23.23;;;10.70;;
42338;SDS011;27993;45.392;10.918;2022-12-29T07:52:52;20.73;;;10.65;;
42338;SDS011;27993;45.392;10.918;2022-12-29T07:55:23;19.90;;;9.47;;
42338;SDS011;27993;45.392;10.918;2022-12-29T07:57:54;16.43;;;9.93;;
42338;SDS011;27993;45.392;10.918;2022-12-29T08:00:25;17.67;;;9.03;;
42338;SDS011;27993;45.392;10.918;2022-12-29T08:02:55;24.02;;;12.82;;
42338;SDS011;27993;45.392;10.918;2022-12-29T08:05:26;18.63;;;11.47;;
42338;SDS011;27993;45.392;10.918;2022-12-29T08:07:57;19.07;;;10.57;;
42338;SDS011;27993;45.392;10.918;2022-12-29T08:10:28;22.60;;;11.52;;
42338;SDS011;27993;45.392;10.918;2022-12-29T08:12:58;32.50;;;11.80;;
42338;SDS011;27993;45.392;10.918;2022-12-29T08:15:29;20.40;;;10.23;;
42338;SDS011;27993;45.392;10.918;2022-12-29T08:17:59;25.47;;;10.97;;
42338;SDS011;27993;45.392;10.918;2022-12-29T08:20:30;16.03;;;10.50;;
42338;SDS011;27993;45.392;10.918;2022-12-29T08:23:02;21.02;;;12.00;;
42338;SDS011;27993;45.392;10.918;2022-12-29T08:25:32;18.07;;;11.47;;
42338;SDS011;27993;45.392;10.918;2022-12-29T08:28:03;19.90;;;11.53;;
42338;SDS011;27993;45.392;10.918;2022-12-29T08:30:35;27.40;;;13.83;;
42338;SDS011;27993;45.392;10.918;2022-12-29T08:35:36;24.08;;;14.27;;
42338;SDS011;27993;45.392;10.918;2022-12-29T08:38:07;28.27;;;14.10;;
42338;SDS011;27993;45.392;10.918;2022-12-29T08:40:37;32.13;;;13.43;;
42338;SDS011;27993;45.392;10.918;2022-12-29T08:43:08;20.07;;;13.30;;
42338;SDS011;27993;45.392;10.918;2022-12-29T08:45:39;24.87;;;13.77;;
42338;SDS011;27993;45.392;10.918;2022-12-29T08:48:09;24.27;;;13.03;;
42338;SDS011;27993;45.392;10.918;2022-12-29T08:50:40;16.30;;;10.83;;
42338;SDS011;27993;45.392;10.918;2022-12-29T08:53:13;23.67;;;11.52;;
42338;SDS011;27993;45.392;10.918;2022-12-29T08:55:44;19.47;;;11.37;;
42338;SDS011;27993;45.392;10.918;2022-12-29T08:58:16;18.25;;;12.23;;
42338;SDS011;27993;45.392;10.918;2022-12-29T09:00:48;21.20;;;12.35;;
42338;SDS011;27993;45.392;10.918;2022-12-29T09:03:19;28.13;;;13.03;;
42338;SDS011;27993;45.392;10.918;2022-12-29T09:05:50;23.23;;;14.32;;
42338;SDS011;27993;45.392;10.918;2022-12-29T09:08:22;27.60;;;13.85;;
42338;SDS011;27993;45.392;10.918;2022-12-29T09:10:53;30.73;;;16.73;;
42338;SDS011;27993;45.392;10.918;2022-12-29T09:13:24;24.57;;;13.73;;
42338;SDS011;27993;45.392;10.918;2022-12-29T09:15:58;23.63;;;12.60;;
42338;SDS011;27993;45.392;10.918;2022-12-29T09:18:29;27.30;;;13.40;;
42338;SDS011;27993;45.392;10.918;2022-12-29T09:21:03;21.75;;;11.98;;
42338;SDS011;27993;45.392;10.918;2022-12-29T09:23:35;23.38;;;13.32;;
42338;SDS011;27993;45.392;10.918;2022-12-29T09:26:06;21.43;;;11.67;;
42338;SDS011;27993;45.392;10.918;2022-12-29T09:28:37;16.15;;;10.18;;
42338;SDS011;27993;45.392;10.918;2022-12-29T09:31:08;20.67;;;9.83;;
42338;SDS011;27993;45.392;10.918;2022-12-29T09:33:38;23.27;;;12.27;;
42338;SDS011;27993;45.392;10.918;2022-12-29T09:36:09;20.20;;;11.67;;
42338;SDS011;27993;45.392;10.918;2022-12-29T09:38:40;17.27;;;10.70;;
42338;SDS011;27993;45.392;10.918;2022-12-29T09:41:13;17.80;;;11.10;;
42338;SDS011;27993;45.392;10.918;2022-12-29T09:44:16;20.70;;;10.57;;
42338;SDS011;27993;45.392;10.918;2022-12-29T09:46:55;19.58;;;10.35;;
42338;SDS011;27993;45.392;10.918;2022-12-29T09:49:40;19.98;;;12.48;;
42338;SDS011;27993;45.392;10.918;2022-12-29T09:52:29;19.45;;;10.75;;
42338;SDS011;27993;45.392;10.918;2022-12-29T09:57:47;21.35;;;12.18;;
42338;SDS011;27993;45.392;10.918;2022-12-29T10:00:40;26.15;;;12.63;;
42338;SDS011;27993;45.392;10.918;2022-12-29T10:03:24;16.62;;;10.85;;
42338;SDS011;27993;45.392;10.918;2022-12-29T10:06:11;19.23;;;11.93;;
42338;SDS011;27993;45.392;10.918;2022-12-29T10:09:08;18.55;;;10.93;;
42338;SDS011;27993;45.392;10.918;2022-12-29T10:18:14;21.73;;;12.57;;
42338;SDS011;27993;45.392;10.918;2022-12-29T10:23:28;24.20;;;13.23;;
42338;SDS011;27993;45.392;10.918;2022-12-29T10:26:09;24.48;;;14.50;;
42338;SDS011;27993;45.392;10.918;2022-12-29T10:28:48;27.50;;;14.10;;
42338;SDS011;27993;45.392;10.918;2022-12-29T10:31:34;26.30;;;14.45;;
42338;SDS011;27993;45.392;10.918;2022-12-29T10:36:57;26.00;;;15.35;;
42338;SDS011;27993;45.392;10.918;2022-12-29T10:39:33;28.42;;;16.35;;
42338;SDS011;27993;45.392;10.918;2022-12-29T10:42:15;30.05;;;16.20;;
42338;SDS011;27993;45.392;10.918;2022-12-29T10:44:54;27.87;;;15.57;;
42338;SDS011;27993;45.392;10.918;2022-12-29T10:47:27;30.95;;;17.17;;
42338;SDS011;27993;45.392;10.918;2022-12-29T10:50:01;36.50;;;18.00;;
42338;SDS011;27993;45.392;10.918;2022-12-29T10:52:33;26.20;;;16.45;;
42338;SDS011;27993;45.392;10.918;2022-12-29T10:55:05;28.35;;;18.80;;
42338;SDS011;27993;45.392;10.918;2022-12-29T10:57:43;37.42;;;19.62;;
42338;SDS011;27993;45.392;10.918;2022-12-29T11:00:16;29.55;;;18.70;;
42338;SDS011;27993;45.392;10.918;2022-12-29T11:03:14;27.83;;;17.48;;
42338;SDS011;27993;45.392;10.918;2022-12-29T11:08:32;34.75;;;19.55;;
42338;SDS011;27993;45.392;10.918;2022-12-29T11:11:09;31.27;;;19.45;;
42338;SDS011;27993;45.392;10.918;2022-12-29T11:16:26;30.62;;;20.52;;
42338;SDS011;27993;45.392;10.918;2022-12-29T11:19:00;38.22;;;21.40;;
42338;SDS011;27993;45.392;10.918;2022-12-29T11:24:04;30.10;;;19.70;;
42338;SDS011;27993;45.392;10.918;2022-12-29T11:26:35;30.00;;;20.42;;
42338;SDS011;27993;45.392;10.918;2022-12-29T11:31:53;31.17;;;21.50;;
42338;SDS011;27993;45.392;10.918;2022-12-29T11:34:32;43.05;;;21.92;;
42338;SDS011;27993;45.392;10.918;2022-12-29T11:45:15;50.88;;;25.52;;
42338;SDS011;27993;45.392;10.918;2022-12-29T11:47:48;39.97;;;25.00;;
42338;SDS011;27993;45.392;10.918;2022-12-29T11:50:25;43.60;;;26.50;;
42338;SDS011;27993;45.392;10.918;2022-12-29T11:53:01;41.85;;;26.25;;
42338;SDS011;27993;45.392;10.918;2022-12-29T11:55:37;41.40;;;23.92;;
42338;SDS011;27993;45.392;10.918;2022-12-29T11:58:12;53.73;;;26.17;;
42338;SDS011;27993;45.392;10.918;2022-12-29T12:00:46;53.15;;;25.90;;
42338;SDS011;27993;45.392;10.918;2022-12-29T12:03:21;52.28;;;24.92;;
42338;SDS011;27993;45.392;10.918;2022-12-29T12:05:55;38.08;;;24.12;;
42338;SDS011;27993;45.392;10.918;2022-12-29T12:08:31;47.05;;;24.35;;
42338;SDS011;27993;45.392;10.918;2022-12-29T12:11:36;38.88;;;23.20;;
42338;SDS011;27993;45.392;10.918;2022-12-29T12:14:19;49.78;;;28.87;;
42338;SDS011;27993;45.392;10.918;2022-12-29T12:16:52;49.03;;;27.08;;
42338;SDS011;27993;45.392;10.918;2022-12-29T12:22:31;48.80;;;25.45;;
42338;SDS011;27993;45.392;10.918;2022-12-29T12:25:11;43.17;;;25.90;;
42338;SDS011;27993;45.392;10.918;2022-12-29T12:27:52;40.35;;;23.48;;
42338;SDS011;27993;45.392;10.918;2022-12-29T12:30:28;41.63;;;23.50;;
42338;SDS011;27993;45.392;10.918;2022-12-29T12:33:22;41.75;;;23.48;;
42338;SDS011;27993;45.392;10.918;2022-12-29T12:41:52;40.43;;;22.80;;
42338;SDS011;27993;45.392;10.918;2022-12-29T12:44:09;34.42;;;21.55;;
42338;SDS011;27993;45.392;10.918;2022-12-29T12:50:02;42.30;;;21.90;;
42338;SDS011;27993;45.392;10.918;2022-12-29T12:53:03;36.95;;;21.90;;
42338;SDS011;27993;45.392;10.918;2022-12-29T13:12:42;28.98;;;18.23;;
42338;SDS011;27993;45.392;10.918;2022-12-29T13:21:01;34.65;;;21.45;;
42338;SDS011;27993;45.392;10.918;2022-12-29T13:26:23;33.90;;;18.98;;
42338;SDS011;27993;45.392;10.918;2022-12-29T13:34:42;31.10;;;20.52;;
42338;SDS011;27993;45.392;10.918;2022-12-29T13:37:19;45.70;;;22.67;;
42338;SDS011;27993;45.392;10.918;2022-12-29T13:39:56;36.58;;;21.45;;
42338;SDS011;27993;45.392;10.918;2022-12-29T13:42:31;34.78;;;20.90;;
42338;SDS011;27993;45.392;10.918;2022-12-29T13:45:06;40.70;;;22.17;;
42338;SDS011;27993;45.392;10.918;2022-12-29T13:47:57;35.10;;;23.37;;
42338;SDS011;27993;45.392;10.918;2022-12-29T13:50:36;43.80;;;22.02;;
42338;SDS011;27993;45.392;10.918;2022-12-29T13:56:35;40.60;;;20.92;;
42338;SDS011;27993;45.392;10.918;2022-12-29T13:59:15;33.42;;;20.95;;
42338;SDS011;27993;45.392;10.918;2022-12-29T14:01:54;38.45;;;21.23;;
42338;SDS011;27993;45.392;10.918;2022-12-29T14:04:32;41.40;;;22.80;;
42338;SDS011;27993;45.392;10.918;2022-12-29T14:07:13;34.15;;;19.80;;
42338;SDS011;27993;45.392;10.918;2022-12-29T14:09:53;50.78;;;21.83;;
42338;SDS011;27993;45.392;10.918;2022-12-29T14:12:38;35.67;;;19.70;;
42338;SDS011;27993;45.392;10.918;2022-12-29T14:17:41;33.90;;;21.30;;
42338;SDS011;27993;45.392;10.918;2022-12-29T14:20:30;35.75;;;24.10;;
42338;SDS011;27993;45.392;10.918;2022-12-29T14:23:48;45.12;;;26.00;;
42338;SDS011;27993;45.392;10.918;2022-12-29T14:26:16;37.95;;;22.98;;
42338;SDS011;27993;45.392;10.918;2022-12-29T14:29:16;32.40;;;22.35;;
42338;SDS011;27993;45.392;10.918;2022-12-29T14:31:59;46.55;;;27.20;;
42338;SDS011;27993;45.392;10.918;2022-12-29T14:34:30;45.73;;;23.97;;
42338;SDS011;27993;45.392;10.918;2022-12-29T14:37:21;43.20;;;23.40;;
42338;SDS011;27993;45.392;10.918;2022-12-29T14:42:48;37.72;;;23.08;;
42338;SDS011;27993;45.392;10.918;2022-12-29T14:45:28;37.17;;;22.85;;
42338;SDS011;27993;45.392;10.918;2022-12-29T14:48:00;38.70;;;21.52;;
42338;SDS011;27993;45.392;10.918;2022-12-29T14:50:39;38.23;;;23.83;;
42338;SDS011;27993;45.392;10.918;2022-12-29T14:56:12;32.97;;;21.48;;
42338;SDS011;27993;45.392;10.918;2022-12-29T15:01:36;36.80;;;21.92;;
42338;SDS011;27993;45.392;10.918;2022-12-29T15:04:38;45.95;;;24.05;;
42338;SDS011;27993;45.392;10.918;2022-12-29T15:07:08;52.78;;;24.30;;
42338;SDS011;27993;45.392;10.918;2022-12-29T15:09:41;40.70;;;23.40;;
42338;SDS011;27993;45.392;10.918;2022-12-29T15:14:51;39.70;;;22.77;;
42338;SDS011;27993;45.392;10.918;2022-12-29T15:20:16;42.85;;;23.62;;
42338;SDS011;27993;45.392;10.918;2022-12-29T15:22:52;43.25;;;25.42;;
42338;SDS011;27993;45.392;10.918;2022-12-29T15:25:32;46.65;;;26.67;;
42338;SDS011;27993;45.392;10.918;2022-12-29T15:28:03;49.17;;;26.57;;
42338;SDS011;27993;45.392;10.918;2022-12-29T15:30:36;50.88;;;28.95;;
42338;SDS011;27993;45.392;10.918;2022-12-29T15:33:24;51.15;;;27.02;;
42338;SDS011;27993;45.392;10.918;2022-12-29T15:36:02;43.17;;;24.58;;
42338;SDS011;27993;45.392;10.918;2022-12-29T15:38:33;47.13;;;26.70;;
42338;SDS011;27993;45.392;10.918;2022-12-29T15:41:05;41.30;;;26.40;;
42338;SDS011;27993;45.392;10.918;2022-12-29T15:46:34;58.75;;;32.42;;
42338;SDS011;27993;45.392;10.918;2022-12-29T15:49:05;53.90;;;28.43;;
42338;SDS011;27993;45.392;10.918;2022-12-29T15:51:38;47.10;;;26.05;;
42338;SDS011;27993;45.392;10.918;2022-12-29T15:54:16;38.17;;;25.35;;
42338;SDS011;27993;45.392;10.918;2022-12-29T15:56:49;48.72;;;26.37;;
42338;SDS011;27993;45.392;10.918;2022-12-29T15:59:28;44.80;;;27.45;;
42338;SDS011;27993;45.392;10.918;2022-12-29T16:02:01;52.05;;;26.90;;
42338;SDS011;27993;45.392;10.918;2022-12-29T16:04:32;64.28;;;30.05;;
42338;SDS011;27993;45.392;10.918;2022-12-29T16:07:04;46.17;;;29.10;;
42338;SDS011;27993;45.392;10.918;2022-12-29T16:09:41;55.83;;;29.73;;
42338;SDS011;27993;45.392;10.918;2022-12-29T16:12:32;55.10;;;32.38;;
42338;SDS011;27993;45.392;10.918;2022-12-29T16:15:11;53.22;;;30.85;;
42338;SDS011;27993;45.392;10.918;2022-12-29T16:17:50;46.13;;;28.67;;
42338;SDS011;27993;45.392;10.918;2022-12-29T16:20:23;44.97;;;26.05;;
42338;SDS011;27993;45.392;10.918;2022-12-29T16:23:01;46.22;;;28.77;;
42338;SDS011;27993;45.392;10.918;2022-12-29T16:25:32;51.40;;;28.63;;
42338;SDS011;27993;45.392;10.918;2022-12-29T16:28:35;47.03;;;26.73;;
42338;SDS011;27993;45.392;10.918;2022-12-29T16:31:19;47.17;;;27.33;;
42338;SDS011;27993;45.392;10.918;2022-12-29T16:33:55;46.67;;;27.00;;
42338;SDS011;27993;45.392;10.918;2022-12-29T16:39:15;42.17;;;25.65;;
42338;SDS011;27993;45.392;10.918;2022-12-29T16:42:49;66.95;;;29.65;;
42338;SDS011;27993;45.392;10.918;2022-12-29T16:48:09;51.00;;;28.33;;
42338;SDS011;27993;45.392;10.918;2022-12-29T16:50:46;52.00;;;29.77;;
42338;SDS011;27993;45.392;10.918;2022-12-29T16:55:53;54.63;;;28.33;;
42338;SDS011;27993;45.392;10.918;2022-12-29T16:58:25;51.67;;;28.40;;
42338;SDS011;27993;45.392;10.918;2022-12-29T17:00:59;54.33;;;33.30;;
42338;SDS011;27993;45.392;10.918;2022-12-29T17:03:33;59.83;;;33.42;;
42338;SDS011;27993;45.392;10.918;2022-12-29T17:06:15;77.47;;;36.22;;
42338;SDS011;27993;45.392;10.918;2022-12-29T17:08:47;53.20;;;32.22;;
42338;SDS011;27993;45.392;10.918;2022-12-29T17:14:16;51.85;;;29.73;;
42338;SDS011;27993;45.392;10.918;2022-12-29T17:17:01;64.35;;;33.30;;
42338;SDS011;27993;45.392;10.918;2022-12-29T17:19:44;55.28;;;31.12;;
42338;SDS011;27993;45.392;10.918;2022-12-29T17:22:22;59.03;;;33.90;;
42338;SDS011;27993;45.392;10.918;2022-12-29T17:24:55;74.18;;;36.75;;
42338;SDS011;27993;45.392;10.918;2022-12-29T17:30:32;71.55;;;39.22;;